sensor_id;sensor_type;location;lat;lon;timestamp;P1;durP1;ratioP1;P2;durP2;ratioP2
27656;SDS011;15066;46.134;9.476;2022-09-03T00:02:38;3.92;;;2.50;;
27656;SDS011;15066;46.134;9.476;2022-09-03T00:08:15;4.13;;;2.53;;
27656;SDS011;15066;46.134;9.476;2022-09-03T00:13:32;4.10;;;2.30;;
27656;SDS011;15066;46.134;9.476;2022-09-03T00:16:21;4.53;;;2.60;;
27656;SDS011;15066;46.134;9.476;2022-09-03T00:18:56;3.17;;;2.22;;
27656;SDS011;15066;46.134;9.476;2022-09-03T00:21:35;3.25;;;2.47;;
27656;SDS011;15066;46.134;9.476;2022-09-03T00:24:02;3.17;;;2.40;;
27656;SDS011;15066;46.134;9.476;2022-09-03T00:26:32;2.60;;;2.37;;
27656;SDS011;15066;46.134;9.476;2022-09-03T00:29:06;2.70;;;2.47;;
27656;SDS011;15066;46.134;9.476;2022-09-03T00:31:43;3.00;;;2.17;;
27656;SDS011;15066;46.134;9.476;2022-09-03T00:34:20;2.75;;;2.47;;
27656;SDS011;15066;46.134;9.476;2022-09-03T00:36:43;3.62;;;2.58;;
27656;SDS011;15066;46.134;9.476;2022-09-03T00:39:12;2.70;;;2.30;;
27656;SDS011;15066;46.134;9.476;2022-09-03T00:41:52;6.53;;;2.83;;
27656;SDS011;15066;46.134;9.476;2022-09-03T00:44:42;2.60;;;2.27;;
27656;SDS011;15066;46.134;9.476;2022-09-03T00:47:11;3.40;;;2.62;;
27656;SDS011;15066;46.134;9.476;2022-09-03T00:53:00;4.58;;;3.12;;
27656;SDS011;15066;46.134;9.476;2022-09-03T01:01:17;4.60;;;3.00;;
27656;SDS011;15066;46.134;9.476;2022-09-03T01:06:48;4.37;;;2.62;;
27656;SDS011;15066;46.134;9.476;2022-09-03T01:09:24;4.37;;;2.75;;
27656;SDS011;15066;46.134;9.476;2022-09-03T01:17:11;3.92;;;2.60;;
27656;SDS011;15066;46.134;9.476;2022-09-03T01:19:49;4.05;;;2.40;;
27656;SDS011;15066;46.134;9.476;2022-09-03T01:22:35;2.90;;;2.70;;
27656;SDS011;15066;46.134;9.476;2022-09-03T01:31:01;3.25;;;2.85;;
27656;SDS011;15066;46.134;9.476;2022-09-03T01:33:49;6.00;;;2.80;;
27656;SDS011;15066;46.134;9.476;2022-09-03T01:36:36;4.15;;;2.92;;
27656;SDS011;15066;46.134;9.476;2022-09-03T01:39:11;3.70;;;2.72;;
27656;SDS011;15066;46.134;9.476;2022-09-03T01:41:43;4.42;;;2.72;;
27656;SDS011;15066;46.134;9.476;2022-09-03T01:50:25;3.98;;;2.62;;
27656;SDS011;15066;46.134;9.476;2022-09-03T01:53:16;5.85;;;2.80;;
27656;SDS011;15066;46.134;9.476;2022-09-03T01:56:15;3.92;;;2.80;;
27656;SDS011;15066;46.134;9.476;2022-09-03T01:58:43;2.85;;;2.55;;
27656;SDS011;15066;46.134;9.476;2022-09-03T02:03:47;5.05;;;2.62;;
27656;SDS011;15066;46.134;9.476;2022-09-03T02:06:15;5.87;;;2.87;;
27656;SDS011;15066;46.134;9.476;2022-09-03T02:08:45;4.45;;;2.77;;
27656;SDS011;15066;46.134;9.476;2022-09-03T02:11:13;3.30;;;2.52;;
27656;SDS011;15066;46.134;9.476;2022-09-03T02:13:41;5.55;;;3.20;;
27656;SDS011;15066;46.134;9.476;2022-09-03T02:16:21;6.72;;;3.20;;
27656;SDS011;15066;46.134;9.476;2022-09-03T02:18:51;4.70;;;2.52;;
27656;SDS011;15066;46.134;9.476;2022-09-03T02:21:21;3.00;;;2.42;;
27656;SDS011;15066;46.134;9.476;2022-09-03T02:23:51;3.02;;;2.80;;
27656;SDS011;15066;46.134;9.476;2022-09-03T02:26:20;4.60;;;3.00;;
27656;SDS011;15066;46.134;9.476;2022-09-03T02:28:50;3.52;;;2.80;;
27656;SDS011;15066;46.134;9.476;2022-09-03T02:31:19;3.35;;;2.60;;
27656;SDS011;15066;46.134;9.476;2022-09-03T02:33:47;3.65;;;2.50;;
27656;SDS011;15066;46.134;9.476;2022-09-03T02:36:17;5.78;;;2.50;;
27656;SDS011;15066;46.134;9.476;2022-09-03T02:41:34;4.22;;;2.90;;
27656;SDS011;15066;46.134;9.476;2022-09-03T02:44:17;8.35;;;3.10;;
27656;SDS011;15066;46.134;9.476;2022-09-03T02:47:00;4.15;;;2.70;;
27656;SDS011;15066;46.134;9.476;2022-09-03T02:49:30;4.25;;;2.42;;
27656;SDS011;15066;46.134;9.476;2022-09-03T02:51:59;4.22;;;2.98;;
27656;SDS011;15066;46.134;9.476;2022-09-03T02:54:37;4.28;;;3.20;;
27656;SDS011;15066;46.134;9.476;2022-09-03T02:57:13;5.15;;;2.98;;
27656;SDS011;15066;46.134;9.476;2022-09-03T02:59:36;6.70;;;3.02;;
27656;SDS011;15066;46.134;9.476;2022-09-03T03:02:04;3.08;;;2.77;;
27656;SDS011;15066;46.134;9.476;2022-09-03T03:04:33;6.03;;;2.95;;
27656;SDS011;15066;46.134;9.476;2022-09-03T03:07:01;3.42;;;3.08;;
27656;SDS011;15066;46.134;9.476;2022-09-03T03:09:29;4.05;;;2.83;;
27656;SDS011;15066;46.134;9.476;2022-09-03T03:11:56;6.78;;;3.70;;
27656;SDS011;15066;46.134;9.476;2022-09-03T03:14:24;5.12;;;3.60;;
27656;SDS011;15066;46.134;9.476;2022-09-03T03:16:51;7.05;;;5.15;;
27656;SDS011;15066;46.134;9.476;2022-09-03T03:19:19;5.30;;;4.80;;
27656;SDS011;15066;46.134;9.476;2022-09-03T03:21:46;8.55;;;5.97;;
27656;SDS011;15066;46.134;9.476;2022-09-03T03:24:14;8.08;;;5.58;;
27656;SDS011;15066;46.134;9.476;2022-09-03T03:26:41;7.80;;;6.10;;
27656;SDS011;15066;46.134;9.476;2022-09-03T03:29:13;8.78;;;7.40;;
27656;SDS011;15066;46.134;9.476;2022-09-03T03:31:42;9.70;;;8.45;;
27656;SDS011;15066;46.134;9.476;2022-09-03T03:34:11;14.75;;;9.63;;
27656;SDS011;15066;46.134;9.476;2022-09-03T03:36:39;10.80;;;9.63;;
27656;SDS011;15066;46.134;9.476;2022-09-03T03:39:06;13.90;;;11.25;;
27656;SDS011;15066;46.134;9.476;2022-09-03T03:41:34;16.70;;;11.57;;
27656;SDS011;15066;46.134;9.476;2022-09-03T03:44:04;16.60;;;11.68;;
27656;SDS011;15066;46.134;9.476;2022-09-03T03:46:34;13.08;;;10.63;;
27656;SDS011;15066;46.134;9.476;2022-09-03T03:49:03;13.18;;;11.53;;
27656;SDS011;15066;46.134;9.476;2022-09-03T03:54:00;11.53;;;10.13;;
27656;SDS011;15066;46.134;9.476;2022-09-03T03:56:27;14.17;;;10.63;;
27656;SDS011;15066;46.134;9.476;2022-09-03T03:58:55;10.08;;;9.13;;
27656;SDS011;15066;46.134;9.476;2022-09-03T04:01:25;10.18;;;9.13;;
27656;SDS011;15066;46.134;9.476;2022-09-03T04:03:54;10.25;;;9.15;;
27656;SDS011;15066;46.134;9.476;2022-09-03T04:06:23;9.15;;;7.97;;
27656;SDS011;15066;46.134;9.476;2022-09-03T04:08:51;8.98;;;7.70;;
27656;SDS011;15066;46.134;9.476;2022-09-03T04:11:19;7.58;;;6.80;;
27656;SDS011;15066;46.134;9.476;2022-09-03T04:13:49;10.40;;;7.17;;
27656;SDS011;15066;46.134;9.476;2022-09-03T04:16:25;9.45;;;8.20;;
27656;SDS011;15066;46.134;9.476;2022-09-03T04:18:50;7.78;;;6.97;;
27656;SDS011;15066;46.134;9.476;2022-09-03T04:21:21;7.20;;;6.50;;
27656;SDS011;15066;46.134;9.476;2022-09-03T04:23:50;8.03;;;5.72;;
27656;SDS011;15066;46.134;9.476;2022-09-03T04:26:20;5.80;;;5.05;;
27656;SDS011;15066;46.134;9.476;2022-09-03T04:28:49;5.17;;;4.72;;
27656;SDS011;15066;46.134;9.476;2022-09-03T04:31:18;5.67;;;4.50;;
27656;SDS011;15066;46.134;9.476;2022-09-03T04:33:47;3.77;;;3.42;;
27656;SDS011;15066;46.134;9.476;2022-09-03T04:36:17;6.83;;;3.87;;
27656;SDS011;15066;46.134;9.476;2022-09-03T04:38:47;4.28;;;3.60;;
27656;SDS011;15066;46.134;9.476;2022-09-03T04:41:18;3.52;;;3.22;;
27656;SDS011;15066;46.134;9.476;2022-09-03T04:43:49;5.70;;;3.33;;
27656;SDS011;15066;46.134;9.476;2022-09-03T04:46:19;3.65;;;3.35;;
27656;SDS011;15066;46.134;9.476;2022-09-03T04:48:51;4.25;;;2.75;;
27656;SDS011;15066;46.134;9.476;2022-09-03T04:51:24;2.85;;;2.62;;
27656;SDS011;15066;46.134;9.476;2022-09-03T04:53:55;2.50;;;2.30;;
27656;SDS011;15066;46.134;9.476;2022-09-03T04:56:25;2.62;;;2.42;;
27656;SDS011;15066;46.134;9.476;2022-09-03T04:58:58;4.70;;;3.60;;
27656;SDS011;15066;46.134;9.476;2022-09-03T05:01:32;4.15;;;3.75;;
27656;SDS011;15066;46.134;9.476;2022-09-03T05:04:01;4.12;;;3.72;;
27656;SDS011;15066;46.134;9.476;2022-09-03T05:06:29;4.12;;;3.72;;
27656;SDS011;15066;46.134;9.476;2022-09-03T05:08:57;4.97;;;3.70;;
27656;SDS011;15066;46.134;9.476;2022-09-03T05:11:26;3.70;;;3.40;;
27656;SDS011;15066;46.134;9.476;2022-09-03T05:13:55;4.60;;;3.60;;
27656;SDS011;15066;46.134;9.476;2022-09-03T05:16:24;3.92;;;3.58;;
27656;SDS011;15066;46.134;9.476;2022-09-03T05:18:54;4.12;;;3.60;;
27656;SDS011;15066;46.134;9.476;2022-09-03T05:21:24;3.85;;;3.42;;
27656;SDS011;15066;46.134;9.476;2022-09-03T05:26:24;3.70;;;3.40;;
27656;SDS011;15066;46.134;9.476;2022-09-03T05:28:54;4.35;;;3.77;;
27656;SDS011;15066;46.134;9.476;2022-09-03T05:31:25;4.47;;;3.70;;
27656;SDS011;15066;46.134;9.476;2022-09-03T05:33:55;9.58;;;3.98;;
27656;SDS011;15066;46.134;9.476;2022-09-03T05:36:26;4.90;;;3.67;;
27656;SDS011;15066;46.134;9.476;2022-09-03T05:38:56;4.22;;;3.83;;
27656;SDS011;15066;46.134;9.476;2022-09-03T05:41:26;3.87;;;3.47;;
27656;SDS011;15066;46.134;9.476;2022-09-03T05:43:56;4.28;;;3.47;;
27656;SDS011;15066;46.134;9.476;2022-09-03T05:46:25;3.65;;;3.30;;
27656;SDS011;15066;46.134;9.476;2022-09-03T05:48:58;3.77;;;3.33;;
27656;SDS011;15066;46.134;9.476;2022-09-03T05:51:27;4.35;;;3.47;;
27656;SDS011;15066;46.134;9.476;2022-09-03T05:53:57;3.60;;;3.30;;
27656;SDS011;15066;46.134;9.476;2022-09-03T05:56:25;5.30;;;3.77;;
27656;SDS011;15066;46.134;9.476;2022-09-03T05:58:59;3.95;;;3.37;;
27656;SDS011;15066;46.134;9.476;2022-09-03T06:01:27;3.85;;;3.45;;
27656;SDS011;15066;46.134;9.476;2022-09-03T06:04:00;4.40;;;3.42;;
27656;SDS011;15066;46.134;9.476;2022-09-03T06:06:33;3.55;;;3.10;;
27656;SDS011;15066;46.134;9.476;2022-09-03T06:09:09;4.42;;;3.72;;
27656;SDS011;15066;46.134;9.476;2022-09-03T06:11:34;3.95;;;3.40;;
27656;SDS011;15066;46.134;9.476;2022-09-03T06:14:03;5.30;;;3.85;;
27656;SDS011;15066;46.134;9.476;2022-09-03T06:16:36;4.08;;;2.72;;
27656;SDS011;15066;46.134;9.476;2022-09-03T06:19:06;3.25;;;1.85;;
27656;SDS011;15066;46.134;9.476;2022-09-03T06:21:36;2.47;;;2.27;;
27656;SDS011;15066;46.134;9.476;2022-09-03T06:24:11;2.85;;;1.95;;
27656;SDS011;15066;46.134;9.476;2022-09-03T06:26:40;3.08;;;2.15;;
27656;SDS011;15066;46.134;9.476;2022-09-03T06:29:08;3.15;;;2.30;;
27656;SDS011;15066;46.134;9.476;2022-09-03T06:31:37;1.62;;;1.52;;
27656;SDS011;15066;46.134;9.476;2022-09-03T06:34:05;4.08;;;1.90;;
27656;SDS011;15066;46.134;9.476;2022-09-03T06:36:34;2.12;;;1.90;;
27656;SDS011;15066;46.134;9.476;2022-09-03T06:39:03;1.80;;;1.60;;
27656;SDS011;15066;46.134;9.476;2022-09-03T06:41:31;2.15;;;1.60;;
27656;SDS011;15066;46.134;9.476;2022-09-03T06:44:01;2.45;;;1.87;;
27656;SDS011;15066;46.134;9.476;2022-09-03T06:46:31;4.58;;;1.70;;
27656;SDS011;15066;46.134;9.476;2022-09-03T06:49:03;3.65;;;1.75;;
27656;SDS011;15066;46.134;9.476;2022-09-03T06:51:31;1.70;;;1.60;;
27656;SDS011;15066;46.134;9.476;2022-09-03T06:54:02;3.70;;;2.58;;
27656;SDS011;15066;46.134;9.476;2022-09-03T06:56:31;5.75;;;2.20;;
27656;SDS011;15066;46.134;9.476;2022-09-03T07:01:28;4.20;;;2.50;;
27656;SDS011;15066;46.134;9.476;2022-09-03T07:04:01;2.80;;;2.20;;
27656;SDS011;15066;46.134;9.476;2022-09-03T07:06:31;3.45;;;2.25;;
27656;SDS011;15066;46.134;9.476;2022-09-03T07:09:03;9.63;;;8.63;;
27656;SDS011;15066;46.134;9.476;2022-09-03T07:14:00;3.10;;;2.42;;
27656;SDS011;15066;46.134;9.476;2022-09-03T07:16:35;5.10;;;2.50;;
27656;SDS011;15066;46.134;9.476;2022-09-03T07:19:00;4.92;;;2.22;;
27656;SDS011;15066;46.134;9.476;2022-09-03T07:21:30;3.80;;;2.20;;
27656;SDS011;15066;46.134;9.476;2022-09-03T07:24:01;2.10;;;1.90;;
27656;SDS011;15066;46.134;9.476;2022-09-03T07:26:31;1.92;;;1.72;;
27656;SDS011;15066;46.134;9.476;2022-09-03T07:29:00;4.75;;;2.10;;
27656;SDS011;15066;46.134;9.476;2022-09-03T07:34:01;3.12;;;2.45;;
27656;SDS011;15066;46.134;9.476;2022-09-03T07:36:34;5.10;;;1.95;;
27656;SDS011;15066;46.134;9.476;2022-09-03T07:39:08;3.80;;;1.92;;
27656;SDS011;15066;46.134;9.476;2022-09-03T07:41:39;5.17;;;1.90;;
27656;SDS011;15066;46.134;9.476;2022-09-03T07:44:15;3.95;;;1.60;;
27656;SDS011;15066;46.134;9.476;2022-09-03T07:46:48;1.70;;;1.57;;
27656;SDS011;15066;46.134;9.476;2022-09-03T07:49:16;2.27;;;1.40;;
27656;SDS011;15066;46.134;9.476;2022-09-03T07:51:44;1.40;;;1.30;;
27656;SDS011;15066;46.134;9.476;2022-09-03T07:54:19;4.40;;;3.27;;
27656;SDS011;15066;46.134;9.476;2022-09-03T07:56:43;3.47;;;2.02;;
27656;SDS011;15066;46.134;9.476;2022-09-03T07:59:10;5.45;;;2.10;;
27656;SDS011;15066;46.134;9.476;2022-09-03T08:01:38;5.30;;;1.70;;
27656;SDS011;15066;46.134;9.476;2022-09-03T08:04:05;4.45;;;1.98;;
27656;SDS011;15066;46.134;9.476;2022-09-03T08:06:33;2.62;;;1.70;;
27656;SDS011;15066;46.134;9.476;2022-09-03T08:09:01;2.12;;;1.65;;
27656;SDS011;15066;46.134;9.476;2022-09-03T08:11:32;1.95;;;1.77;;
27656;SDS011;15066;46.134;9.476;2022-09-03T08:14:02;2.80;;;2.05;;
27656;SDS011;15066;46.134;9.476;2022-09-03T08:16:33;3.15;;;2.05;;
27656;SDS011;15066;46.134;9.476;2022-09-03T08:19:06;3.02;;;1.90;;
27656;SDS011;15066;46.134;9.476;2022-09-03T08:21:34;2.75;;;1.50;;
27656;SDS011;15066;46.134;9.476;2022-09-03T08:24:01;2.45;;;1.82;;
27656;SDS011;15066;46.134;9.476;2022-09-03T08:26:30;3.27;;;1.50;;
27656;SDS011;15066;46.134;9.476;2022-09-03T08:29:00;2.42;;;1.87;;
27656;SDS011;15066;46.134;9.476;2022-09-03T08:31:28;3.25;;;2.20;;
27656;SDS011;15066;46.134;9.476;2022-09-03T08:33:57;3.80;;;2.37;;
27656;SDS011;15066;46.134;9.476;2022-09-03T08:36:29;3.05;;;2.47;;
27656;SDS011;15066;46.134;9.476;2022-09-03T08:38:59;3.90;;;2.52;;
27656;SDS011;15066;46.134;9.476;2022-09-03T08:41:54;4.78;;;2.50;;
27656;SDS011;15066;46.134;9.476;2022-09-03T08:47:11;2.47;;;2.27;;
27656;SDS011;15066;46.134;9.476;2022-09-03T08:50:10;2.42;;;1.90;;
27656;SDS011;15066;46.134;9.476;2022-09-03T08:52:42;3.72;;;2.27;;
27656;SDS011;15066;46.134;9.476;2022-09-03T08:55:28;2.75;;;2.55;;
27656;SDS011;15066;46.134;9.476;2022-09-03T08:58:05;4.33;;;3.58;;
27656;SDS011;15066;46.134;9.476;2022-09-03T09:08:55;3.58;;;2.30;;
27656;SDS011;15066;46.134;9.476;2022-09-03T09:19:56;4.00;;;1.90;;
27656;SDS011;15066;46.134;9.476;2022-09-03T09:22:39;2.50;;;1.92;;
27656;SDS011;15066;46.134;9.476;2022-09-03T09:25:17;2.72;;;2.10;;
27656;SDS011;15066;46.134;9.476;2022-09-03T09:30:22;1.55;;;1.45;;
27656;SDS011;15066;46.134;9.476;2022-09-03T09:32:50;1.62;;;1.35;;
27656;SDS011;15066;46.134;9.476;2022-09-03T09:35:18;2.80;;;1.10;;
27656;SDS011;15066;46.134;9.476;2022-09-03T09:37:51;2.80;;;1.77;;
27656;SDS011;15066;46.134;9.476;2022-09-03T09:40:31;1.52;;;1.25;;
27656;SDS011;15066;46.134;9.476;2022-09-03T09:43:08;28.15;;;15.95;;
27656;SDS011;15066;46.134;9.476;2022-09-03T09:45:38;4.75;;;2.62;;
27656;SDS011;15066;46.134;9.476;2022-09-03T09:48:08;1.40;;;1.20;;
27656;SDS011;15066;46.134;9.476;2022-09-03T09:50:37;1.70;;;1.22;;
27656;SDS011;15066;46.134;9.476;2022-09-03T09:53:09;1.72;;;1.35;;
27656;SDS011;15066;46.134;9.476;2022-09-03T09:55:48;2.37;;;1.62;;
27656;SDS011;15066;46.134;9.476;2022-09-03T09:58:21;2.92;;;2.08;;
27656;SDS011;15066;46.134;9.476;2022-09-03T10:01:00;3.12;;;2.05;;
27656;SDS011;15066;46.134;9.476;2022-09-03T10:03:25;1.98;;;1.77;;
27656;SDS011;15066;46.134;9.476;2022-09-03T10:06:08;2.12;;;1.75;;
27656;SDS011;15066;46.134;9.476;2022-09-03T10:09:04;2.47;;;1.50;;
27656;SDS011;15066;46.134;9.476;2022-09-03T10:11:33;1.85;;;1.75;;
27656;SDS011;15066;46.134;9.476;2022-09-03T10:14:14;2.40;;;2.15;;
27656;SDS011;15066;46.134;9.476;2022-09-03T10:16:38;7.50;;;2.58;;
27656;SDS011;15066;46.134;9.476;2022-09-03T10:21:46;3.25;;;2.27;;
27656;SDS011;15066;46.134;9.476;2022-09-03T10:24:51;3.30;;;2.08;;
27656;SDS011;15066;46.134;9.476;2022-09-03T10:27:18;3.45;;;2.33;;
27656;SDS011;15066;46.134;9.476;2022-09-03T10:29:48;2.85;;;1.90;;
27656;SDS011;15066;46.134;9.476;2022-09-03T10:32:22;2.23;;;2.00;;
27656;SDS011;15066;46.134;9.476;2022-09-03T10:37:46;2.72;;;1.98;;
27656;SDS011;15066;46.134;9.476;2022-09-03T10:40:29;2.50;;;2.30;;
27656;SDS011;15066;46.134;9.476;2022-09-03T10:43:08;2.58;;;2.37;;
27656;SDS011;15066;46.134;9.476;2022-09-03T10:48:34;2.45;;;2.12;;
27656;SDS011;15066;46.134;9.476;2022-09-03T10:51:11;2.10;;;1.90;;
27656;SDS011;15066;46.134;9.476;2022-09-03T11:02:47;2.80;;;2.17;;
27656;SDS011;15066;46.134;9.476;2022-09-03T11:05:17;2.22;;;2.02;;
27656;SDS011;15066;46.134;9.476;2022-09-03T11:07:53;2.10;;;1.80;;
27656;SDS011;15066;46.134;9.476;2022-09-03T11:10:29;1.82;;;1.72;;
27656;SDS011;15066;46.134;9.476;2022-09-03T11:13:14;1.75;;;1.65;;
27656;SDS011;15066;46.134;9.476;2022-09-03T11:21:00;2.83;;;1.80;;
27656;SDS011;15066;46.134;9.476;2022-09-03T11:23:30;3.33;;;1.87;;
27656;SDS011;15066;46.134;9.476;2022-09-03T11:26:03;4.40;;;1.10;;
27656;SDS011;15066;46.134;9.476;2022-09-03T11:28:43;2.37;;;1.57;;
27656;SDS011;15066;46.134;9.476;2022-09-03T11:31:45;3.47;;;1.60;;
27656;SDS011;15066;46.134;9.476;2022-09-03T11:34:32;2.20;;;1.40;;
27656;SDS011;15066;46.134;9.476;2022-09-03T11:37:18;1.10;;;1.10;;
27656;SDS011;15066;46.134;9.476;2022-09-03T11:39:53;22.00;;;14.78;;
27656;SDS011;15066;46.134;9.476;2022-09-03T11:42:41;2.35;;;2.08;;
27656;SDS011;15066;46.134;9.476;2022-09-03T11:45:11;2.33;;;1.65;;
27656;SDS011;15066;46.134;9.476;2022-09-03T11:47:46;1.87;;;1.62;;
27656;SDS011;15066;46.134;9.476;2022-09-03T11:52:46;1.75;;;1.30;;
27656;SDS011;15066;46.134;9.476;2022-09-03T11:55:29;4.42;;;1.35;;
27656;SDS011;15066;46.134;9.476;2022-09-03T11:58:12;1.87;;;1.07;;
27656;SDS011;15066;46.134;9.476;2022-09-03T12:00:45;2.17;;;1.10;;
27656;SDS011;15066;46.134;9.476;2022-09-03T12:03:15;2.45;;;1.20;;
27656;SDS011;15066;46.134;9.476;2022-09-03T12:08:39;1.82;;;1.12;;
27656;SDS011;15066;46.134;9.476;2022-09-03T12:17:07;0.95;;;0.93;;
27656;SDS011;15066;46.134;9.476;2022-09-03T12:22:23;1.98;;;0.95;;
27656;SDS011;15066;46.134;9.476;2022-09-03T12:24:53;0.80;;;0.80;;
27656;SDS011;15066;46.134;9.476;2022-09-03T12:27:23;1.65;;;0.90;;
27656;SDS011;15066;46.134;9.476;2022-09-03T12:29:56;1.92;;;0.78;;
27656;SDS011;15066;46.134;9.476;2022-09-03T12:32:30;1.82;;;1.05;;
27656;SDS011;15066;46.134;9.476;2022-09-03T12:35:23;1.72;;;0.70;;
27656;SDS011;15066;46.134;9.476;2022-09-03T12:37:37;1.02;;;0.80;;
27656;SDS011;15066;46.134;9.476;2022-09-03T12:40:14;0.95;;;0.90;;
27656;SDS011;15066;46.134;9.476;2022-09-03T12:42:36;2.20;;;1.07;;
27656;SDS011;15066;46.134;9.476;2022-09-03T12:45:05;1.05;;;0.82;;
27656;SDS011;15066;46.134;9.476;2022-09-03T12:47:38;1.20;;;1.10;;
27656;SDS011;15066;46.134;9.476;2022-09-03T12:50:15;1.75;;;1.10;;
27656;SDS011;15066;46.134;9.476;2022-09-03T12:52:44;1.30;;;1.10;;
27656;SDS011;15066;46.134;9.476;2022-09-03T12:55:35;2.58;;;0.95;;
27656;SDS011;15066;46.134;9.476;2022-09-03T12:58:24;1.87;;;1.00;;
27656;SDS011;15066;46.134;9.476;2022-09-03T13:01:14;2.22;;;1.00;;
27656;SDS011;15066;46.134;9.476;2022-09-03T13:03:53;1.37;;;0.88;;
27656;SDS011;15066;46.134;9.476;2022-09-03T13:06:26;1.27;;;1.10;;
27656;SDS011;15066;46.134;9.476;2022-09-03T13:08:59;2.37;;;1.20;;
27656;SDS011;15066;46.134;9.476;2022-09-03T13:11:31;1.62;;;1.20;;
27656;SDS011;15066;46.134;9.476;2022-09-03T13:14:03;1.07;;;0.98;;
27656;SDS011;15066;46.134;9.476;2022-09-03T13:25:19;0.75;;;0.70;;
27656;SDS011;15066;46.134;9.476;2022-09-03T13:27:58;0.62;;;0.62;;
27656;SDS011;15066;46.134;9.476;2022-09-03T13:30:40;1.87;;;1.02;;
27656;SDS011;15066;46.134;9.476;2022-09-03T13:35:46;1.12;;;0.80;;
27656;SDS011;15066;46.134;9.476;2022-09-03T13:41:08;0.80;;;0.80;;
27656;SDS011;15066;46.134;9.476;2022-09-03T13:43:51;0.93;;;0.88;;
27656;SDS011;15066;46.134;9.476;2022-09-03T13:46:42;1.32;;;0.90;;
27656;SDS011;15066;46.134;9.476;2022-09-03T13:52:03;0.62;;;0.62;;
27656;SDS011;15066;46.134;9.476;2022-09-03T13:54:35;2.22;;;0.93;;
27656;SDS011;15066;46.134;9.476;2022-09-03T13:57:06;1.05;;;0.70;;
27656;SDS011;15066;46.134;9.476;2022-09-03T14:05:06;0.80;;;0.70;;
27656;SDS011;15066;46.134;9.476;2022-09-03T14:10:44;0.78;;;0.78;;
27656;SDS011;15066;46.134;9.476;2022-09-03T14:13:27;0.98;;;0.80;;
27656;SDS011;15066;46.134;9.476;2022-09-03T14:16:01;2.22;;;0.70;;
27656;SDS011;15066;46.134;9.476;2022-09-03T14:21:18;1.50;;;0.90;;
27656;SDS011;15066;46.134;9.476;2022-09-03T14:24:06;1.22;;;0.80;;
27656;SDS011;15066;46.134;9.476;2022-09-03T14:26:51;0.98;;;0.80;;
27656;SDS011;15066;46.134;9.476;2022-09-03T14:29:25;1.22;;;1.10;;
27656;SDS011;15066;46.134;9.476;2022-09-03T14:46:00;1.07;;;1.07;;
27656;SDS011;15066;46.134;9.476;2022-09-03T15:02:18;1.57;;;0.80;;
27656;SDS011;15066;46.134;9.476;2022-09-03T15:08:05;0.68;;;0.68;;
27656;SDS011;15066;46.134;9.476;2022-09-03T15:13:16;2.70;;;0.82;;
27656;SDS011;15066;46.134;9.476;2022-09-03T15:18:50;2.00;;;1.02;;
27656;SDS011;15066;46.134;9.476;2022-09-03T15:24:11;0.80;;;0.80;;
27656;SDS011;15066;46.134;9.476;2022-09-03T15:26:46;0.80;;;0.80;;
27656;SDS011;15066;46.134;9.476;2022-09-03T15:29:36;1.30;;;1.12;;
27656;SDS011;15066;46.134;9.476;2022-09-03T15:34:53;0.80;;;0.70;;
27656;SDS011;15066;46.134;9.476;2022-09-03T15:43:04;0.98;;;0.80;;
27656;SDS011;15066;46.134;9.476;2022-09-03T15:45:48;2.35;;;0.90;;
27656;SDS011;15066;46.134;9.476;2022-09-03T15:51:16;3.83;;;1.17;;
27656;SDS011;15066;46.134;9.476;2022-09-03T15:56:26;1.42;;;0.90;;
27656;SDS011;15066;46.134;9.476;2022-09-03T16:07:39;2.72;;;2.20;;
27656;SDS011;15066;46.134;9.476;2022-09-03T16:10:18;2.05;;;1.30;;
27656;SDS011;15066;46.134;9.476;2022-09-03T16:15:57;3.05;;;1.50;;
27656;SDS011;15066;46.134;9.476;2022-09-03T16:18:37;2.87;;;2.00;;
27656;SDS011;15066;46.134;9.476;2022-09-03T16:21:08;6.00;;;3.58;;
27656;SDS011;15066;46.134;9.476;2022-09-03T16:26:20;3.20;;;2.60;;
27656;SDS011;15066;46.134;9.476;2022-09-03T16:28:59;1.37;;;1.27;;
27656;SDS011;15066;46.134;9.476;2022-09-03T16:40:10;3.92;;;1.35;;
27656;SDS011;15066;46.134;9.476;2022-09-03T16:45:40;1.40;;;1.20;;
27656;SDS011;15066;46.134;9.476;2022-09-03T16:50:49;5.28;;;1.12;;
27656;SDS011;15066;46.134;9.476;2022-09-03T16:53:22;1.32;;;1.22;;
27656;SDS011;15066;46.134;9.476;2022-09-03T16:55:55;3.02;;;1.20;;
27656;SDS011;15066;46.134;9.476;2022-09-03T17:09:27;1.05;;;0.93;;
27656;SDS011;15066;46.134;9.476;2022-09-03T17:12:06;1.85;;;1.02;;
27656;SDS011;15066;46.134;9.476;2022-09-03T17:17:42;2.30;;;1.10;;
27656;SDS011;15066;46.134;9.476;2022-09-03T17:20:17;1.20;;;1.05;;
27656;SDS011;15066;46.134;9.476;2022-09-03T17:31:35;1.77;;;1.30;;
27656;SDS011;15066;46.134;9.476;2022-09-03T17:33:56;3.37;;;1.70;;
27656;SDS011;15066;46.134;9.476;2022-09-03T17:36:38;1.72;;;1.62;;
27656;SDS011;15066;46.134;9.476;2022-09-03T17:41:49;2.90;;;2.40;;
27656;SDS011;15066;46.134;9.476;2022-09-03T17:49:41;5.28;;;2.30;;
27656;SDS011;15066;46.134;9.476;2022-09-03T17:52:23;6.45;;;2.12;;
27656;SDS011;15066;46.134;9.476;2022-09-03T17:54:53;2.58;;;2.27;;
27656;SDS011;15066;46.134;9.476;2022-09-03T17:57:24;2.55;;;2.25;;
27656;SDS011;15066;46.134;9.476;2022-09-03T18:00:06;6.15;;;2.17;;
27656;SDS011;15066;46.134;9.476;2022-09-03T18:02:42;2.83;;;2.12;;
27656;SDS011;15066;46.134;9.476;2022-09-03T18:07:57;4.22;;;2.30;;
27656;SDS011;15066;46.134;9.476;2022-09-03T18:13:37;6.15;;;2.08;;
27656;SDS011;15066;46.134;9.476;2022-09-03T18:18:56;2.65;;;2.20;;
27656;SDS011;15066;46.134;9.476;2022-09-03T18:21:40;2.25;;;2.02;;
27656;SDS011;15066;46.134;9.476;2022-09-03T18:24:27;5.20;;;2.00;;
27656;SDS011;15066;46.134;9.476;2022-09-03T18:27:40;2.27;;;2.05;;
27656;SDS011;15066;46.134;9.476;2022-09-03T18:30:27;3.35;;;2.27;;
27656;SDS011;15066;46.134;9.476;2022-09-03T18:33:14;4.40;;;2.42;;
27656;SDS011;15066;46.134;9.476;2022-09-03T18:38:46;2.15;;;2.00;;
27656;SDS011;15066;46.134;9.476;2022-09-03T18:47:58;4.08;;;2.55;;
27656;SDS011;15066;46.134;9.476;2022-09-03T18:54:10;7.95;;;2.52;;
27656;SDS011;15066;46.134;9.476;2022-09-03T18:56:58;3.77;;;2.25;;
27656;SDS011;15066;46.134;9.476;2022-09-03T19:02:56;3.58;;;2.17;;
27656;SDS011;15066;46.134;9.476;2022-09-03T19:05:59;3.52;;;2.20;;
27656;SDS011;15066;46.134;9.476;2022-09-03T19:15:33;4.12;;;2.40;;
27656;SDS011;15066;46.134;9.476;2022-09-03T19:21:35;3.47;;;2.70;;
27656;SDS011;15066;46.134;9.476;2022-09-03T19:24:25;4.17;;;2.43;;
27656;SDS011;15066;46.134;9.476;2022-09-03T19:30:30;4.40;;;2.80;;
27656;SDS011;15066;46.134;9.476;2022-09-03T19:48:27;2.37;;;2.17;;
27656;SDS011;15066;46.134;9.476;2022-09-03T19:51:20;2.30;;;2.10;;
27656;SDS011;15066;46.134;9.476;2022-09-03T19:54:08;3.58;;;2.40;;
27656;SDS011;15066;46.134;9.476;2022-09-03T19:56:54;3.22;;;2.22;;
27656;SDS011;15066;46.134;9.476;2022-09-03T19:59:41;3.47;;;2.22;;
27656;SDS011;15066;46.134;9.476;2022-09-03T20:02:29;2.60;;;2.12;;
27656;SDS011;15066;46.134;9.476;2022-09-03T20:05:16;2.42;;;2.00;;
27656;SDS011;15066;46.134;9.476;2022-09-03T20:08:04;3.40;;;2.08;;
27656;SDS011;15066;46.134;9.476;2022-09-03T20:10:51;3.83;;;2.40;;
27656;SDS011;15066;46.134;9.476;2022-09-03T20:13:21;4.90;;;2.67;;
27656;SDS011;15066;46.134;9.476;2022-09-03T20:18:35;2.50;;;2.20;;
27656;SDS011;15066;46.134;9.476;2022-09-03T20:29:57;7.17;;;2.42;;
27656;SDS011;15066;46.134;9.476;2022-09-03T20:37:43;2.67;;;2.40;;
27656;SDS011;15066;46.134;9.476;2022-09-03T20:40:33;5.12;;;2.50;;
27656;SDS011;15066;46.134;9.476;2022-09-03T20:48:24;5.80;;;2.50;;
27656;SDS011;15066;46.134;9.476;2022-09-03T20:53:41;4.37;;;2.58;;
27656;SDS011;15066;46.134;9.476;2022-09-03T20:56:29;3.10;;;2.77;;
27656;SDS011;15066;46.134;9.476;2022-09-03T20:59:02;4.47;;;2.60;;
27656;SDS011;15066;46.134;9.476;2022-09-03T21:09:51;5.30;;;2.60;;